sensor_id;sensor_type;location;lat;lon;timestamp;P1;durP1;ratioP1;P2;durP2;ratioP2
28551;SDS011;15752;49.560;8.708;2023-04-03T00:01:38;1.30;;;1.00;;
28551;SDS011;15752;49.560;8.708;2023-04-03T00:04:08;2.37;;;1.13;;
28551;SDS011;15752;49.560;8.708;2023-04-03T00:06:36;2.10;;;1.40;;
28551;SDS011;15752;49.560;8.708;2023-04-03T00:09:05;3.07;;;1.20;;
28551;SDS011;15752;49.560;8.708;2023-04-03T00:11:35;0.87;;;0.80;;
28551;SDS011;15752;49.560;8.708;2023-04-03T00:14:04;4.23;;;1.30;;
28551;SDS011;15752;49.560;8.708;2023-04-03T00:16:32;2.10;;;1.30;;
28551;SDS011;15752;49.560;8.708;2023-04-03T00:19:01;3.63;;;1.10;;
28551;SDS011;15752;49.560;8.708;2023-04-03T00:21:31;1.10;;;1.00;;
28551;SDS011;15752;49.560;8.708;2023-04-03T00:23:59;1.30;;;0.90;;
28551;SDS011;15752;49.560;8.708;2023-04-03T00:26:27;3.33;;;1.20;;
28551;SDS011;15752;49.560;8.708;2023-04-03T00:28:56;1.10;;;0.90;;
28551;SDS011;15752;49.560;8.708;2023-04-03T00:31:24;1.20;;;1.03;;
28551;SDS011;15752;49.560;8.708;2023-04-03T00:33:53;1.50;;;0.93;;
28551;SDS011;15752;49.560;8.708;2023-04-03T00:36:22;2.60;;;1.20;;
28551;SDS011;15752;49.560;8.708;2023-04-03T00:38:51;2.37;;;1.20;;
28551;SDS011;15752;49.560;8.708;2023-04-03T00:41:20;2.80;;;1.03;;
28551;SDS011;15752;49.560;8.708;2023-04-03T00:43:49;2.73;;;1.50;;
28551;SDS011;15752;49.560;8.708;2023-04-03T00:46:17;0.97;;;0.87;;
28551;SDS011;15752;49.560;8.708;2023-04-03T00:48:46;1.43;;;1.00;;
28551;SDS011;15752;49.560;8.708;2023-04-03T00:51:16;2.20;;;1.20;;
28551;SDS011;15752;49.560;8.708;2023-04-03T00:53:54;1.50;;;0.93;;
28551;SDS011;15752;49.560;8.708;2023-04-03T00:56:26;3.37;;;1.30;;
28551;SDS011;15752;49.560;8.708;2023-04-03T00:58:58;4.07;;;1.23;;
28551;SDS011;15752;49.560;8.708;2023-04-03T01:01:29;1.63;;;1.20;;
28551;SDS011;15752;49.560;8.708;2023-04-03T01:03:58;2.93;;;1.13;;
28551;SDS011;15752;49.560;8.708;2023-04-03T01:06:30;1.43;;;1.00;;
28551;SDS011;15752;49.560;8.708;2023-04-03T01:09:08;2.93;;;0.90;;
28551;SDS011;15752;49.560;8.708;2023-04-03T01:11:37;1.53;;;0.90;;
28551;SDS011;15752;49.560;8.708;2023-04-03T01:14:06;1.90;;;1.20;;
28551;SDS011;15752;49.560;8.708;2023-04-03T01:16:34;3.03;;;1.40;;
28551;SDS011;15752;49.560;8.708;2023-04-03T01:19:03;1.90;;;1.20;;
28551;SDS011;15752;49.560;8.708;2023-04-03T01:21:45;2.27;;;0.90;;
28551;SDS011;15752;49.560;8.708;2023-04-03T01:24:33;1.80;;;1.07;;
28551;SDS011;15752;49.560;8.708;2023-04-03T01:27:08;2.70;;;1.20;;
28551;SDS011;15752;49.560;8.708;2023-04-03T01:29:38;1.40;;;1.30;;
28551;SDS011;15752;49.560;8.708;2023-04-03T01:32:11;2.50;;;1.20;;
28551;SDS011;15752;49.560;8.708;2023-04-03T01:34:41;1.87;;;0.90;;
28551;SDS011;15752;49.560;8.708;2023-04-03T01:37:09;1.60;;;1.10;;
28551;SDS011;15752;49.560;8.708;2023-04-03T01:39:38;1.83;;;1.20;;
28551;SDS011;15752;49.560;8.708;2023-04-03T01:42:07;3.87;;;1.90;;
28551;SDS011;15752;49.560;8.708;2023-04-03T01:44:38;2.70;;;1.70;;
28551;SDS011;15752;49.560;8.708;2023-04-03T01:47:07;2.60;;;1.77;;
28551;SDS011;15752;49.560;8.708;2023-04-03T01:49:39;2.43;;;1.40;;
28551;SDS011;15752;49.560;8.708;2023-04-03T01:52:08;2.53;;;1.50;;
28551;SDS011;15752;49.560;8.708;2023-04-03T01:54:36;2.93;;;1.80;;
28551;SDS011;15752;49.560;8.708;2023-04-03T01:57:05;4.60;;;2.07;;
28551;SDS011;15752;49.560;8.708;2023-04-03T01:59:34;3.93;;;1.70;;
28551;SDS011;15752;49.560;8.708;2023-04-03T02:02:02;3.37;;;1.83;;
28551;SDS011;15752;49.560;8.708;2023-04-03T02:04:30;3.80;;;2.00;;
28551;SDS011;15752;49.560;8.708;2023-04-03T02:07:00;2.37;;;1.60;;
28551;SDS011;15752;49.560;8.708;2023-04-03T02:09:29;2.97;;;1.80;;
28551;SDS011;15752;49.560;8.708;2023-04-03T02:11:57;2.53;;;1.70;;
28551;SDS011;15752;49.560;8.708;2023-04-03T02:14:25;3.67;;;2.17;;
28551;SDS011;15752;49.560;8.708;2023-04-03T02:16:54;3.13;;;2.10;;
28551;SDS011;15752;49.560;8.708;2023-04-03T02:19:22;4.60;;;2.23;;
28551;SDS011;15752;49.560;8.708;2023-04-03T02:21:51;2.90;;;1.97;;
28551;SDS011;15752;49.560;8.708;2023-04-03T02:24:21;3.53;;;1.80;;
28551;SDS011;15752;49.560;8.708;2023-04-03T02:26:49;3.03;;;2.10;;
28551;SDS011;15752;49.560;8.708;2023-04-03T02:29:18;2.47;;;2.03;;
28551;SDS011;15752;49.560;8.708;2023-04-03T02:31:47;3.53;;;2.30;;
28551;SDS011;15752;49.560;8.708;2023-04-03T02:34:15;3.17;;;2.13;;
28551;SDS011;15752;49.560;8.708;2023-04-03T02:36:45;2.27;;;1.80;;
28551;SDS011;15752;49.560;8.708;2023-04-03T02:39:15;3.83;;;1.93;;
28551;SDS011;15752;49.560;8.708;2023-04-03T02:41:45;3.83;;;2.40;;
28551;SDS011;15752;49.560;8.708;2023-04-03T02:44:19;4.07;;;1.80;;
28551;SDS011;15752;49.560;8.708;2023-04-03T02:46:47;2.50;;;2.00;;
28551;SDS011;15752;49.560;8.708;2023-04-03T02:49:16;2.87;;;2.20;;
28551;SDS011;15752;49.560;8.708;2023-04-03T02:51:45;2.47;;;2.00;;
28551;SDS011;15752;49.560;8.708;2023-04-03T02:54:14;3.73;;;2.53;;
28551;SDS011;15752;49.560;8.708;2023-04-03T02:56:48;3.50;;;2.30;;
28551;SDS011;15752;49.560;8.708;2023-04-03T02:59:17;4.60;;;2.10;;
28551;SDS011;15752;49.560;8.708;2023-04-03T03:01:46;3.60;;;2.20;;
28551;SDS011;15752;49.560;8.708;2023-04-03T03:04:15;2.97;;;1.77;;
28551;SDS011;15752;49.560;8.708;2023-04-03T03:06:43;2.23;;;1.70;;
28551;SDS011;15752;49.560;8.708;2023-04-03T03:09:13;3.63;;;1.73;;
28551;SDS011;15752;49.560;8.708;2023-04-03T03:11:42;2.60;;;1.80;;
28551;SDS011;15752;49.560;8.708;2023-04-03T03:14:11;2.27;;;1.43;;
28551;SDS011;15752;49.560;8.708;2023-04-03T03:16:40;1.70;;;1.50;;
28551;SDS011;15752;49.560;8.708;2023-04-03T03:19:08;1.50;;;1.40;;
28551;SDS011;15752;49.560;8.708;2023-04-03T03:21:37;4.30;;;2.03;;
28551;SDS011;15752;49.560;8.708;2023-04-03T03:24:06;1.93;;;1.43;;
28551;SDS011;15752;49.560;8.708;2023-04-03T03:26:35;3.03;;;1.97;;
28551;SDS011;15752;49.560;8.708;2023-04-03T03:29:03;2.40;;;1.87;;
28551;SDS011;15752;49.560;8.708;2023-04-03T03:31:33;4.27;;;1.70;;
28551;SDS011;15752;49.560;8.708;2023-04-03T03:34:06;2.77;;;1.63;;
28551;SDS011;15752;49.560;8.708;2023-04-03T03:36:34;1.73;;;1.30;;
28551;SDS011;15752;49.560;8.708;2023-04-03T03:39:03;3.30;;;1.70;;
28551;SDS011;15752;49.560;8.708;2023-04-03T03:41:31;1.50;;;1.30;;
28551;SDS011;15752;49.560;8.708;2023-04-03T03:44:00;4.43;;;1.47;;
28551;SDS011;15752;49.560;8.708;2023-04-03T03:46:31;1.73;;;1.47;;
28551;SDS011;15752;49.560;8.708;2023-04-03T03:49:00;2.77;;;1.53;;
28551;SDS011;15752;49.560;8.708;2023-04-03T03:51:30;4.43;;;1.63;;
28551;SDS011;15752;49.560;8.708;2023-04-03T03:53:58;3.40;;;1.50;;
28551;SDS011;15752;49.560;8.708;2023-04-03T03:56:27;3.07;;;2.27;;
28551;SDS011;15752;49.560;8.708;2023-04-03T03:58:56;2.57;;;2.00;;
28551;SDS011;15752;49.560;8.708;2023-04-03T04:01:24;2.80;;;2.20;;
28551;SDS011;15752;49.560;8.708;2023-04-03T04:03:53;4.47;;;2.60;;
28551;SDS011;15752;49.560;8.708;2023-04-03T04:06:28;5.53;;;2.90;;
28551;SDS011;15752;49.560;8.708;2023-04-03T04:09:01;3.07;;;2.30;;
28551;SDS011;15752;49.560;8.708;2023-04-03T04:11:29;3.23;;;2.30;;
28551;SDS011;15752;49.560;8.708;2023-04-03T04:14:00;2.73;;;1.83;;
28551;SDS011;15752;49.560;8.708;2023-04-03T04:16:29;3.07;;;2.50;;
28551;SDS011;15752;49.560;8.708;2023-04-03T04:19:03;2.80;;;1.90;;
28551;SDS011;15752;49.560;8.708;2023-04-03T04:21:36;3.07;;;2.13;;
28551;SDS011;15752;49.560;8.708;2023-04-03T04:24:05;3.63;;;2.00;;
28551;SDS011;15752;49.560;8.708;2023-04-03T04:26:35;2.30;;;1.73;;
28551;SDS011;15752;49.560;8.708;2023-04-03T04:29:04;3.80;;;2.00;;
28551;SDS011;15752;49.560;8.708;2023-04-03T04:31:34;2.40;;;2.03;;
28551;SDS011;15752;49.560;8.708;2023-04-03T04:34:04;3.67;;;1.87;;
28551;SDS011;15752;49.560;8.708;2023-04-03T04:36:33;4.53;;;1.87;;
28551;SDS011;15752;49.560;8.708;2023-04-03T04:39:03;2.43;;;1.70;;
28551;SDS011;15752;49.560;8.708;2023-04-03T04:41:32;3.50;;;1.60;;
28551;SDS011;15752;49.560;8.708;2023-04-03T04:44:03;4.57;;;1.93;;
28551;SDS011;15752;49.560;8.708;2023-04-03T04:46:31;3.00;;;2.00;;
28551;SDS011;15752;49.560;8.708;2023-04-03T04:49:01;3.70;;;1.80;;
28551;SDS011;15752;49.560;8.708;2023-04-03T04:51:30;2.20;;;2.00;;
28551;SDS011;15752;49.560;8.708;2023-04-03T04:54:12;3.67;;;2.70;;
28551;SDS011;15752;49.560;8.708;2023-04-03T04:56:40;2.77;;;2.50;;
28551;SDS011;15752;49.560;8.708;2023-04-03T04:59:09;3.67;;;2.57;;
28551;SDS011;15752;49.560;8.708;2023-04-03T05:01:38;3.77;;;2.73;;
28551;SDS011;15752;49.560;8.708;2023-04-03T05:04:11;2.67;;;2.23;;
28551;SDS011;15752;49.560;8.708;2023-04-03T05:06:40;3.80;;;2.60;;
28551;SDS011;15752;49.560;8.708;2023-04-03T05:09:14;4.23;;;2.60;;
28551;SDS011;15752;49.560;8.708;2023-04-03T05:11:45;5.33;;;2.67;;
28551;SDS011;15752;49.560;8.708;2023-04-03T05:14:16;3.00;;;2.17;;
28551;SDS011;15752;49.560;8.708;2023-04-03T05:16:45;3.63;;;2.87;;
28551;SDS011;15752;49.560;8.708;2023-04-03T05:19:17;3.83;;;2.90;;
28551;SDS011;15752;49.560;8.708;2023-04-03T05:21:45;2.77;;;2.30;;
28551;SDS011;15752;49.560;8.708;2023-04-03T05:24:17;3.43;;;2.70;;
28551;SDS011;15752;49.560;8.708;2023-04-03T05:26:45;3.33;;;2.33;;
28551;SDS011;15752;49.560;8.708;2023-04-03T05:29:14;3.87;;;2.60;;
28551;SDS011;15752;49.560;8.708;2023-04-03T05:31:43;3.83;;;2.73;;
28551;SDS011;15752;49.560;8.708;2023-04-03T05:34:12;3.70;;;3.30;;
28551;SDS011;15752;49.560;8.708;2023-04-03T05:36:42;4.33;;;3.33;;
28551;SDS011;15752;49.560;8.708;2023-04-03T05:39:12;6.33;;;4.60;;
28551;SDS011;15752;49.560;8.708;2023-04-03T05:41:44;5.87;;;4.33;;
28551;SDS011;15752;49.560;8.708;2023-04-03T05:44:12;5.60;;;3.87;;
28551;SDS011;15752;49.560;8.708;2023-04-03T05:46:42;6.53;;;4.43;;
28551;SDS011;15752;49.560;8.708;2023-04-03T05:49:11;10.03;;;5.83;;
28551;SDS011;15752;49.560;8.708;2023-04-03T05:51:39;9.57;;;6.07;;
28551;SDS011;15752;49.560;8.708;2023-04-03T05:54:20;9.43;;;6.10;;
28551;SDS011;15752;49.560;8.708;2023-04-03T05:56:58;8.47;;;5.50;;
28551;SDS011;15752;49.560;8.708;2023-04-03T05:59:27;11.37;;;6.00;;
28551;SDS011;15752;49.560;8.708;2023-04-03T06:01:57;8.67;;;5.17;;
28551;SDS011;15752;49.560;8.708;2023-04-03T06:04:27;10.33;;;6.13;;
28551;SDS011;15752;49.560;8.708;2023-04-03T06:06:57;9.10;;;5.37;;
28551;SDS011;15752;49.560;8.708;2023-04-03T06:09:27;9.13;;;5.50;;
28551;SDS011;15752;49.560;8.708;2023-04-03T06:11:59;10.37;;;5.37;;
28551;SDS011;15752;49.560;8.708;2023-04-03T06:14:29;7.67;;;5.37;;
28551;SDS011;15752;49.560;8.708;2023-04-03T06:16:57;9.23;;;6.10;;
28551;SDS011;15752;49.560;8.708;2023-04-03T06:19:26;8.07;;;5.83;;
28551;SDS011;15752;49.560;8.708;2023-04-03T06:21:56;8.00;;;6.13;;
28551;SDS011;15752;49.560;8.708;2023-04-03T06:24:24;7.83;;;5.70;;
28551;SDS011;15752;49.560;8.708;2023-04-03T06:26:52;10.83;;;6.40;;
28551;SDS011;15752;49.560;8.708;2023-04-03T06:29:23;8.40;;;5.87;;
28551;SDS011;15752;49.560;8.708;2023-04-03T06:31:52;8.70;;;5.43;;
28551;SDS011;15752;49.560;8.708;2023-04-03T06:34:20;6.70;;;5.33;;
28551;SDS011;15752;49.560;8.708;2023-04-03T06:36:49;10.73;;;6.40;;
28551;SDS011;15752;49.560;8.708;2023-04-03T06:39:18;10.53;;;6.00;;
28551;SDS011;15752;49.560;8.708;2023-04-03T06:41:48;8.83;;;5.87;;
28551;SDS011;15752;49.560;8.708;2023-04-03T06:44:28;11.00;;;6.70;;
28551;SDS011;15752;49.560;8.708;2023-04-03T06:46:56;13.27;;;6.03;;
28551;SDS011;15752;49.560;8.708;2023-04-03T06:49:24;8.50;;;5.73;;
28551;SDS011;15752;49.560;8.708;2023-04-03T06:51:54;7.30;;;5.30;;
28551;SDS011;15752;49.560;8.708;2023-04-03T06:54:23;9.17;;;5.60;;
28551;SDS011;15752;49.560;8.708;2023-04-03T06:56:51;4.80;;;3.70;;
28551;SDS011;15752;49.560;8.708;2023-04-03T06:59:20;5.07;;;2.93;;
28551;SDS011;15752;49.560;8.708;2023-04-03T07:01:50;3.90;;;3.00;;
28551;SDS011;15752;49.560;8.708;2023-04-03T07:04:19;5.53;;;3.10;;
28551;SDS011;15752;49.560;8.708;2023-04-03T07:06:47;4.50;;;3.10;;
28551;SDS011;15752;49.560;8.708;2023-04-03T07:09:16;4.43;;;3.43;;
28551;SDS011;15752;49.560;8.708;2023-04-03T07:11:45;3.60;;;2.80;;
28551;SDS011;15752;49.560;8.708;2023-04-03T07:14:14;4.63;;;2.73;;
28551;SDS011;15752;49.560;8.708;2023-04-03T07:16:42;3.90;;;2.80;;
28551;SDS011;15752;49.560;8.708;2023-04-03T07:19:12;3.10;;;2.37;;
28551;SDS011;15752;49.560;8.708;2023-04-03T07:21:40;5.77;;;3.07;;
28551;SDS011;15752;49.560;8.708;2023-04-03T07:24:09;3.80;;;2.93;;
28551;SDS011;15752;49.560;8.708;2023-04-03T07:26:42;5.13;;;2.60;;
28551;SDS011;15752;49.560;8.708;2023-04-03T07:29:11;8.43;;;7.33;;
28551;SDS011;15752;49.560;8.708;2023-04-03T07:31:40;7.53;;;3.70;;
28551;SDS011;15752;49.560;8.708;2023-04-03T07:34:08;3.40;;;2.80;;
28551;SDS011;15752;49.560;8.708;2023-04-03T07:36:38;5.93;;;3.10;;
28551;SDS011;15752;49.560;8.708;2023-04-03T07:39:07;4.03;;;2.40;;
28551;SDS011;15752;49.560;8.708;2023-04-03T07:41:35;4.07;;;1.90;;
28551;SDS011;15752;49.560;8.708;2023-04-03T07:44:03;3.67;;;1.80;;
28551;SDS011;15752;49.560;8.708;2023-04-03T07:46:36;4.43;;;2.23;;
28551;SDS011;15752;49.560;8.708;2023-04-03T07:49:04;2.80;;;1.47;;
28551;SDS011;15752;49.560;8.708;2023-04-03T07:51:33;3.43;;;1.80;;
28551;SDS011;15752;49.560;8.708;2023-04-03T07:54:03;4.90;;;1.60;;
28551;SDS011;15752;49.560;8.708;2023-04-03T07:56:31;4.10;;;1.83;;
28551;SDS011;15752;49.560;8.708;2023-04-03T07:59:00;3.37;;;1.47;;
28551;SDS011;15752;49.560;8.708;2023-04-03T08:01:28;2.73;;;1.63;;
28551;SDS011;15752;49.560;8.708;2023-04-03T08:03:59;2.73;;;1.80;;
28551;SDS011;15752;49.560;8.708;2023-04-03T08:06:28;2.97;;;1.27;;
28551;SDS011;15752;49.560;8.708;2023-04-03T08:09:13;2.90;;;1.40;;
28551;SDS011;15752;49.560;8.708;2023-04-03T08:11:42;3.33;;;1.57;;
28551;SDS011;15752;49.560;8.708;2023-04-03T08:14:11;2.83;;;1.60;;
28551;SDS011;15752;49.560;8.708;2023-04-03T08:16:43;3.07;;;1.37;;
28551;SDS011;15752;49.560;8.708;2023-04-03T08:19:13;2.83;;;1.57;;
28551;SDS011;15752;49.560;8.708;2023-04-03T08:21:51;4.87;;;1.47;;
28551;SDS011;15752;49.560;8.708;2023-04-03T08:24:22;2.03;;;1.27;;
28551;SDS011;15752;49.560;8.708;2023-04-03T08:26:51;4.83;;;3.10;;
28551;SDS011;15752;49.560;8.708;2023-04-03T08:29:20;2.60;;;1.60;;
28551;SDS011;15752;49.560;8.708;2023-04-03T08:31:48;3.47;;;1.57;;
28551;SDS011;15752;49.560;8.708;2023-04-03T08:34:17;2.13;;;1.17;;
28551;SDS011;15752;49.560;8.708;2023-04-03T08:36:46;2.30;;;1.00;;
28551;SDS011;15752;49.560;8.708;2023-04-03T08:39:16;2.20;;;1.33;;
28551;SDS011;15752;49.560;8.708;2023-04-03T08:41:46;2.13;;;1.00;;
28551;SDS011;15752;49.560;8.708;2023-04-03T08:44:16;2.80;;;1.10;;
28551;SDS011;15752;49.560;8.708;2023-04-03T08:46:58;4.60;;;1.20;;
28551;SDS011;15752;49.560;8.708;2023-04-03T08:49:40;1.87;;;0.90;;
28551;SDS011;15752;49.560;8.708;2023-04-03T08:52:15;2.60;;;1.33;;
28551;SDS011;15752;49.560;8.708;2023-04-03T08:54:49;2.17;;;1.00;;
28551;SDS011;15752;49.560;8.708;2023-04-03T08:57:26;2.20;;;1.10;;
28551;SDS011;15752;49.560;8.708;2023-04-03T08:59:59;2.93;;;1.53;;
28551;SDS011;15752;49.560;8.708;2023-04-03T09:02:45;1.90;;;1.07;;
28551;SDS011;15752;49.560;8.708;2023-04-03T09:05:17;4.50;;;1.03;;
28551;SDS011;15752;49.560;8.708;2023-04-03T09:07:50;2.27;;;1.00;;
28551;SDS011;15752;49.560;8.708;2023-04-03T09:10:24;2.07;;;1.10;;
28551;SDS011;15752;49.560;8.708;2023-04-03T09:13:01;2.27;;;0.90;;
28551;SDS011;15752;49.560;8.708;2023-04-03T09:15:34;1.50;;;0.90;;
28551;SDS011;15752;49.560;8.708;2023-04-03T09:18:05;2.67;;;1.00;;
28551;SDS011;15752;49.560;8.708;2023-04-03T09:20:44;3.67;;;1.23;;
28551;SDS011;15752;49.560;8.708;2023-04-03T09:23:22;1.83;;;0.93;;
28551;SDS011;15752;49.560;8.708;2023-04-03T09:25:57;2.50;;;1.30;;
28551;SDS011;15752;49.560;8.708;2023-04-03T09:28:33;1.30;;;1.00;;
28551;SDS011;15752;49.560;8.708;2023-04-03T09:31:18;1.07;;;0.70;;
28551;SDS011;15752;49.560;8.708;2023-04-03T09:33:51;2.40;;;0.90;;
28551;SDS011;15752;49.560;8.708;2023-04-03T09:36:37;1.40;;;0.93;;
28551;SDS011;15752;49.560;8.708;2023-04-03T09:39:10;2.60;;;0.50;;
28551;SDS011;15752;49.560;8.708;2023-04-03T09:41:42;2.80;;;0.80;;
28551;SDS011;15752;49.560;8.708;2023-04-03T09:44:25;3.87;;;0.83;;
28551;SDS011;15752;49.560;8.708;2023-04-03T09:46:55;1.37;;;0.97;;
28551;SDS011;15752;49.560;8.708;2023-04-03T09:49:23;1.73;;;0.80;;
28551;SDS011;15752;49.560;8.708;2023-04-03T09:51:52;3.23;;;1.10;;
28551;SDS011;15752;49.560;8.708;2023-04-03T09:54:25;3.23;;;1.20;;
28551;SDS011;15752;49.560;8.708;2023-04-03T09:57:06;2.20;;;0.90;;
28551;SDS011;15752;49.560;8.708;2023-04-03T09:59:42;2.67;;;1.10;;
28551;SDS011;15752;49.560;8.708;2023-04-03T10:02:22;1.87;;;1.00;;
28551;SDS011;15752;49.560;8.708;2023-04-03T10:05:01;1.30;;;0.80;;
28551;SDS011;15752;49.560;8.708;2023-04-03T10:07:37;3.70;;;1.60;;
28551;SDS011;15752;49.560;8.708;2023-04-03T10:10:18;2.00;;;1.10;;
28551;SDS011;15752;49.560;8.708;2023-04-03T10:13:03;1.70;;;0.80;;
28551;SDS011;15752;49.560;8.708;2023-04-03T10:15:41;1.63;;;0.97;;
28551;SDS011;15752;49.560;8.708;2023-04-03T10:18:21;3.00;;;0.90;;
28551;SDS011;15752;49.560;8.708;2023-04-03T10:21:02;3.03;;;1.00;;
28551;SDS011;15752;49.560;8.708;2023-04-03T10:23:47;4.00;;;1.40;;
28551;SDS011;15752;49.560;8.708;2023-04-03T10:26:26;3.50;;;1.30;;
28551;SDS011;15752;49.560;8.708;2023-04-03T10:29:06;1.73;;;1.10;;
28551;SDS011;15752;49.560;8.708;2023-04-03T10:31:50;3.57;;;1.30;;
28551;SDS011;15752;49.560;8.708;2023-04-03T10:34:28;8.57;;;5.53;;
28551;SDS011;15752;49.560;8.708;2023-04-03T10:37:04;3.00;;;1.70;;
28551;SDS011;15752;49.560;8.708;2023-04-03T10:39:43;3.30;;;1.20;;
28551;SDS011;15752;49.560;8.708;2023-04-03T10:42:22;1.40;;;1.30;;
28551;SDS011;15752;49.560;8.708;2023-04-03T10:45:01;2.30;;;1.10;;
28551;SDS011;15752;49.560;8.708;2023-04-03T10:47:48;1.93;;;0.87;;
28551;SDS011;15752;49.560;8.708;2023-04-03T10:50:31;3.70;;;1.10;;
28551;SDS011;15752;49.560;8.708;2023-04-03T10:53:11;2.10;;;1.57;;
28551;SDS011;15752;49.560;8.708;2023-04-03T10:55:49;2.20;;;1.27;;
28551;SDS011;15752;49.560;8.708;2023-04-03T10:58:24;2.13;;;1.10;;
28551;SDS011;15752;49.560;8.708;2023-04-03T11:01:00;4.17;;;1.67;;
28551;SDS011;15752;49.560;8.708;2023-04-03T11:03:36;2.27;;;1.07;;
28551;SDS011;15752;49.560;8.708;2023-04-03T11:06:09;1.13;;;0.93;;
28551;SDS011;15752;49.560;8.708;2023-04-03T11:08:42;1.70;;;1.13;;
28551;SDS011;15752;49.560;8.708;2023-04-03T11:11:16;2.10;;;1.10;;
28551;SDS011;15752;49.560;8.708;2023-04-03T11:13:49;2.53;;;1.40;;
28551;SDS011;15752;49.560;8.708;2023-04-03T11:16:24;3.47;;;1.67;;
28551;SDS011;15752;49.560;8.708;2023-04-03T11:19:01;3.23;;;1.43;;
28551;SDS011;15752;49.560;8.708;2023-04-03T11:21:36;1.50;;;0.87;;
28551;SDS011;15752;49.560;8.708;2023-04-03T11:24:12;2.40;;;1.17;;
28551;SDS011;15752;49.560;8.708;2023-04-03T11:26:48;4.43;;;1.00;;
28551;SDS011;15752;49.560;8.708;2023-04-03T11:29:20;3.70;;;1.07;;
28551;SDS011;15752;49.560;8.708;2023-04-03T11:32:04;2.20;;;1.00;;
28551;SDS011;15752;49.560;8.708;2023-04-03T11:34:50;2.97;;;1.70;;
28551;SDS011;15752;49.560;8.708;2023-04-03T11:37:27;2.27;;;1.67;;
28551;SDS011;15752;49.560;8.708;2023-04-03T11:40:00;3.77;;;2.03;;
28551;SDS011;15752;49.560;8.708;2023-04-03T11:42:37;2.87;;;1.53;;
28551;SDS011;15752;49.560;8.708;2023-04-03T11:45:25;1.97;;;0.97;;
28551;SDS011;15752;49.560;8.708;2023-04-03T11:48:04;1.67;;;1.07;;
28551;SDS011;15752;49.560;8.708;2023-04-03T11:50:50;1.47;;;1.10;;
28551;SDS011;15752;49.560;8.708;2023-04-03T11:53:26;1.67;;;0.93;;
28551;SDS011;15752;49.560;8.708;2023-04-03T11:56:26;2.03;;;1.30;;
28551;SDS011;15752;49.560;8.708;2023-04-03T12:02:14;2.13;;;1.07;;
28551;SDS011;15752;49.560;8.708;2023-04-03T12:05:26;2.30;;;1.20;;
28551;SDS011;15752;49.560;8.708;2023-04-03T12:14:01;2.57;;;1.50;;
28551;SDS011;15752;49.560;8.708;2023-04-03T12:16:32;1.53;;;0.93;;
28551;SDS011;15752;49.560;8.708;2023-04-03T12:22:15;1.13;;;1.00;;
28551;SDS011;15752;49.560;8.708;2023-04-03T12:24:49;2.97;;;1.10;;
28551;SDS011;15752;49.560;8.708;2023-04-03T12:27:23;1.90;;;1.00;;
28551;SDS011;15752;49.560;8.708;2023-04-03T12:30:11;2.00;;;1.40;;
28551;SDS011;15752;49.560;8.708;2023-04-03T12:33:12;4.83;;;1.50;;
28551;SDS011;15752;49.560;8.708;2023-04-03T12:35:57;2.93;;;1.20;;
28551;SDS011;15752;49.560;8.708;2023-04-03T12:38:41;3.17;;;1.10;;
28551;SDS011;15752;49.560;8.708;2023-04-03T12:41:29;1.90;;;0.97;;
28551;SDS011;15752;49.560;8.708;2023-04-03T12:44:16;1.50;;;1.07;;
28551;SDS011;15752;49.560;8.708;2023-04-03T12:46:59;1.87;;;1.00;;
28551;SDS011;15752;49.560;8.708;2023-04-03T12:49:33;2.33;;;1.30;;
28551;SDS011;15752;49.560;8.708;2023-04-03T12:52:06;1.60;;;1.13;;
28551;SDS011;15752;49.560;8.708;2023-04-03T12:54:50;2.30;;;1.30;;
28551;SDS011;15752;49.560;8.708;2023-04-03T12:57:21;1.30;;;1.10;;
28551;SDS011;15752;49.560;8.708;2023-04-03T12:59:53;1.77;;;1.27;;
28551;SDS011;15752;49.560;8.708;2023-04-03T13:02:23;2.70;;;0.93;;
28551;SDS011;15752;49.560;8.708;2023-04-03T13:04:55;3.20;;;1.07;;
28551;SDS011;15752;49.560;8.708;2023-04-03T13:07:27;3.30;;;1.33;;
28551;SDS011;15752;49.560;8.708;2023-04-03T13:10:09;1.53;;;1.23;;
28551;SDS011;15752;49.560;8.708;2023-04-03T13:12:46;2.20;;;1.30;;
28551;SDS011;15752;49.560;8.708;2023-04-03T13:15:21;1.93;;;1.37;;
28551;SDS011;15752;49.560;8.708;2023-04-03T13:17:52;1.93;;;1.20;;
28551;SDS011;15752;49.560;8.708;2023-04-03T13:20:23;2.23;;;1.50;;
28551;SDS011;15752;49.560;8.708;2023-04-03T13:22:55;3.40;;;1.00;;
28551;SDS011;15752;49.560;8.708;2023-04-03T13:25:27;2.63;;;1.47;;
28551;SDS011;15752;49.560;8.708;2023-04-03T13:28:02;3.03;;;1.43;;
28551;SDS011;15752;49.560;8.708;2023-04-03T13:30:40;2.43;;;1.70;;
28551;SDS011;15752;49.560;8.708;2023-04-03T13:33:23;3.30;;;1.60;;
28551;SDS011;15752;49.560;8.708;2023-04-03T13:35:56;2.77;;;1.63;;
28551;SDS011;15752;49.560;8.708;2023-04-03T13:38:29;2.80;;;1.73;;
28551;SDS011;15752;49.560;8.708;2023-04-03T13:41:01;2.40;;;1.60;;
28551;SDS011;15752;49.560;8.708;2023-04-03T13:43:35;2.30;;;1.10;;
28551;SDS011;15752;49.560;8.708;2023-04-03T13:46:22;2.90;;;1.40;;
28551;SDS011;15752;49.560;8.708;2023-04-03T13:48:55;2.60;;;1.40;;
28551;SDS011;15752;49.560;8.708;2023-04-03T13:51:25;2.73;;;1.17;;
28551;SDS011;15752;49.560;8.708;2023-04-03T13:53:56;2.57;;;1.10;;
28551;SDS011;15752;49.560;8.708;2023-04-03T13:56:30;2.80;;;1.30;;
28551;SDS011;15752;49.560;8.708;2023-04-03T13:59:18;3.57;;;1.50;;
28551;SDS011;15752;49.560;8.708;2023-04-03T14:01:52;1.43;;;1.20;;
28551;SDS011;15752;49.560;8.708;2023-04-03T14:04:24;1.70;;;1.10;;
28551;SDS011;15752;49.560;8.708;2023-04-03T14:06:55;3.10;;;1.10;;
28551;SDS011;15752;49.560;8.708;2023-04-03T14:09:24;2.50;;;1.20;;
28551;SDS011;15752;49.560;8.708;2023-04-03T14:11:55;1.60;;;1.10;;
28551;SDS011;15752;49.560;8.708;2023-04-03T14:14:33;3.37;;;2.23;;
28551;SDS011;15752;49.560;8.708;2023-04-03T14:17:10;3.20;;;1.40;;
28551;SDS011;15752;49.560;8.708;2023-04-03T14:19:51;2.43;;;1.40;;
28551;SDS011;15752;49.560;8.708;2023-04-03T14:22:22;1.70;;;1.03;;
28551;SDS011;15752;49.560;8.708;2023-04-03T14:24:52;1.40;;;1.00;;
28551;SDS011;15752;49.560;8.708;2023-04-03T14:27:23;4.87;;;1.10;;
28551;SDS011;15752;49.560;8.708;2023-04-03T14:29:57;1.97;;;1.23;;
28551;SDS011;15752;49.560;8.708;2023-04-03T14:32:26;2.37;;;1.20;;
28551;SDS011;15752;49.560;8.708;2023-04-03T14:34:55;1.60;;;1.30;;
28551;SDS011;15752;49.560;8.708;2023-04-03T14:37:26;1.80;;;1.20;;
28551;SDS011;15752;49.560;8.708;2023-04-03T14:39:57;2.40;;;1.70;;
28551;SDS011;15752;49.560;8.708;2023-04-03T14:42:28;2.47;;;1.03;;
28551;SDS011;15752;49.560;8.708;2023-04-03T14:45:02;3.60;;;1.20;;
28551;SDS011;15752;49.560;8.708;2023-04-03T14:47:33;3.83;;;2.30;;
28551;SDS011;15752;49.560;8.708;2023-04-03T14:50:11;2.40;;;1.40;;
28551;SDS011;15752;49.560;8.708;2023-04-03T14:52:43;3.13;;;1.17;;
28551;SDS011;15752;49.560;8.708;2023-04-03T14:55:14;1.40;;;1.20;;
28551;SDS011;15752;49.560;8.708;2023-04-03T14:57:45;2.27;;;1.10;;
28551;SDS011;15752;49.560;8.708;2023-04-03T15:00:18;2.30;;;1.13;;
28551;SDS011;15752;49.560;8.708;2023-04-03T15:02:48;1.10;;;0.93;;
28551;SDS011;15752;49.560;8.708;2023-04-03T15:05:17;2.27;;;0.97;;
28551;SDS011;15752;49.560;8.708;2023-04-03T15:07:47;3.07;;;1.60;;
28551;SDS011;15752;49.560;8.708;2023-04-03T15:10:19;2.37;;;1.03;;
28551;SDS011;15752;49.560;8.708;2023-04-03T15:12:51;1.53;;;0.70;;
28551;SDS011;15752;49.560;8.708;2023-04-03T15:15:22;2.03;;;0.90;;
28551;SDS011;15752;49.560;8.708;2023-04-03T15:17:52;2.03;;;0.97;;
28551;SDS011;15752;49.560;8.708;2023-04-03T15:20:25;2.90;;;1.13;;
28551;SDS011;15752;49.560;8.708;2023-04-03T15:22:57;2.63;;;1.63;;
28551;SDS011;15752;49.560;8.708;2023-04-03T15:25:27;2.50;;;1.07;;
28551;SDS011;15752;49.560;8.708;2023-04-03T15:27:56;1.07;;;0.90;;
28551;SDS011;15752;49.560;8.708;2023-04-03T15:30:26;1.70;;;1.00;;
28551;SDS011;15752;49.560;8.708;2023-04-03T15:32:55;1.40;;;0.90;;